Terminal Aerodrome Forecast
Issued by NWS Bismarck, ND

Current Version | Previous Version | Text Only | Print | Product List | Glossary On
Versions: 1 2 3 4 5 6 7 8 9 10 11 12 13 14 15 16 17 18 19 20 21 22 23 24 25
000
FTUS43 KBIS 202300
TAFISN
TAF
KISN 202337Z 2100/2124 25006KT P6SM SCT060
     FM210800 16005KT P6SM SCT100 SCT180
     FM211400 16004KT P6SM SCT060 BKN100
     FM212200 16010KT P6SM VCSH SCT030 OVC050=

USA.gov is the U.S. government's official web portal to all federal, state and local government web resources and services.